createdAt,value
2023-03-29T16:01:51.264Z,2.00
2023-03-29T16:03:24.709Z,2.60
2023-03-29T16:04:56.686Z,3.00
2023-03-29T16:06:28.656Z,2.80
2023-03-29T16:08:00.706Z,2.80
2023-03-29T16:09:32.853Z,3.00
2023-03-29T16:11:07.013Z,3.80
2023-03-29T16:12:39.386Z,3.00
2023-03-29T16:14:13.936Z,3.00
2023-03-29T16:15:45.941Z,2.60
2023-03-29T16:17:17.905Z,1.00
2023-03-29T16:18:49.798Z,1.80
2023-03-29T16:20:21.914Z,2.40
2023-03-29T16:21:54.377Z,3.60
2023-03-29T16:23:26.768Z,4.00
2023-03-29T16:24:58.846Z,2.60
2023-03-29T16:26:31.971Z,3.00
2023-03-29T16:28:05.175Z,2.40
2023-03-29T16:29:37.426Z,2.00
2023-03-29T16:31:13.134Z,3.20
2023-03-29T16:32:46.085Z,2.80
2023-03-29T16:34:19.376Z,2.00
2023-03-29T16:35:51.969Z,3.00
2023-03-29T16:37:24.019Z,2.40
2023-03-29T16:38:55.937Z,1.80
2023-03-29T16:40:28.100Z,3.00
2023-03-29T16:41:59.967Z,3.00
2023-03-29T16:43:31.926Z,3.60
2023-03-29T16:45:04.012Z,2.60
2023-03-29T16:46:35.987Z,2.00
2023-03-29T16:48:13.166Z,3.00
2023-03-29T16:49:48.759Z,3.60
2023-03-29T16:51:21.610Z,4.60
2023-03-29T16:52:53.890Z,4.40
2023-03-29T16:54:31.853Z,4.40
2023-03-29T16:56:04.431Z,3.00
2023-03-29T16:57:36.704Z,2.40
2023-03-29T16:59:09.701Z,3.20
2023-03-29T17:00:41.642Z,3.80
2023-03-29T17:02:13.604Z,2.00
2023-03-29T17:03:45.822Z,3.00
2023-03-29T17:05:18.447Z,1.00
2023-03-29T17:06:50.336Z,2.40
2023-03-29T17:08:22.254Z,3.00
2023-03-29T17:09:54.529Z,5.40
2023-03-29T17:11:28.464Z,12.00
2023-03-29T17:13:01.013Z,17.20
2023-03-29T17:14:33.001Z,25.40
2023-03-29T17:16:05.843Z,25.00
2023-03-29T17:17:38.060Z,34.60
2023-03-29T17:19:10.152Z,37.00
2023-03-29T17:20:42.121Z,45.00
2023-03-29T17:22:14.239Z,48.25
2023-03-29T17:23:46.107Z,53.00
2023-03-29T17:25:18.439Z,60.75
2023-03-29T17:26:50.610Z,65.25
2023-03-29T17:28:23.073Z,62.40
2023-03-29T17:29:55.081Z,67.00
2023-03-29T17:31:27.132Z,70.60
2023-03-29T17:32:59.196Z,69.00
2023-03-29T17:34:33.101Z,74.60
2023-03-29T17:36:05.950Z,76.50
2023-03-29T17:37:38.403Z,69.40
2023-03-29T17:39:10.306Z,77.75
2023-03-29T17:40:42.277Z,72.00
2023-03-29T17:42:14.164Z,78.75
2023-03-29T17:43:46.202Z,83.50
2023-03-29T17:45:18.252Z,89.00
2023-03-29T17:46:50.307Z,91.50
2023-03-29T17:48:23.291Z,92.50
2023-03-29T17:49:55.543Z,92.25
2023-03-29T17:51:27.801Z,95.75
2023-03-29T17:52:59.664Z,99.25
2023-03-29T17:54:31.575Z,98.50
2023-03-29T17:56:03.897Z,95.75
2023-03-29T17:57:35.958Z,96.00
2023-03-29T17:59:07.981Z,98.75
2023-03-29T18:00:39.912Z,96.75
2023-03-29T18:02:22.834Z,95.25
2023-03-29T18:03:54.794Z,97.25
2023-03-29T18:05:26.801Z,97.50
2023-03-29T18:06:58.702Z,94.75
2023-03-29T18:08:31.394Z,93.50
2023-03-29T18:10:03.391Z,94.25
2023-03-29T18:11:36.534Z,94.25
2023-03-29T18:13:11.462Z,122.25
2023-03-29T18:14:43.397Z,89.75
2023-03-29T18:16:15.330Z,88.50
2023-03-29T18:17:47.376Z,72.50
2023-03-29T18:19:19.413Z,66.20
2023-03-29T18:20:51.810Z,55.75
2023-03-29T18:22:24.275Z,48.00
2023-03-29T18:23:56.908Z,42.25
2023-03-29T18:25:29.659Z,35.75
2023-03-29T18:27:01.517Z,37.25
2023-03-29T18:28:33.948Z,34.75
2023-03-29T18:30:06.673Z,34.20
2023-03-29T18:31:38.622Z,33.75
2023-03-29T18:33:10.745Z,48.50
2023-03-29T18:34:42.712Z,48.00
2023-03-29T18:36:14.828Z,55.75
2023-03-29T18:37:47.223Z,49.00
2023-03-29T18:39:19.157Z,48.75
2023-03-29T18:40:51.687Z,45.75
2023-03-29T18:42:23.663Z,44.50
2023-03-29T18:43:57.490Z,44.50
2023-03-29T18:45:29.439Z,45.50
2023-03-29T18:47:01.375Z,39.75
2023-03-29T18:48:39.032Z,37.50
2023-03-29T18:50:12.492Z,34.75
2023-03-29T18:51:44.379Z,37.50
2023-03-29T18:53:16.841Z,35.25
2023-03-29T18:54:48.717Z,35.75
2023-03-29T18:56:20.904Z,33.25
2023-03-29T18:57:52.751Z,32.25
2023-03-29T18:59:24.715Z,32.50
2023-03-29T19:01:04.328Z,30.00
2023-03-29T19:02:36.408Z,30.80
2023-03-29T19:04:08.496Z,31.20
2023-03-29T19:05:40.491Z,28.40
2023-03-29T19:07:12.676Z,28.20
2023-03-29T19:08:44.565Z,28.40
2023-03-29T19:10:17.008Z,27.20
2023-03-29T19:11:49.020Z,26.40
2023-03-29T19:13:20.944Z,27.80
2023-03-29T19:14:52.753Z,26.20
2023-03-29T19:16:28.273Z,27.00
2023-03-29T19:18:00.246Z,26.60
2023-03-29T19:19:32.259Z,24.00
2023-03-29T19:21:04.126Z,23.60
2023-03-29T19:22:37.377Z,25.80
2023-03-29T19:24:09.493Z,23.60
2023-03-29T19:25:41.507Z,24.20
2023-03-29T19:27:13.738Z,23.00
2023-03-29T19:28:46.299Z,22.20
2023-03-29T19:30:20.254Z,22.00
2023-03-29T19:31:52.255Z,20.20
2023-03-29T19:33:24.418Z,24.20
2023-03-29T19:34:56.435Z,20.80
2023-03-29T19:36:28.486Z,20.80
2023-03-29T19:38:00.613Z,21.60
2023-03-29T19:39:32.894Z,20.20
2023-03-29T19:41:07.766Z,20.20
2023-03-29T19:42:40.284Z,20.00
2023-03-29T19:44:13.932Z,15.40
2023-03-29T19:45:46.776Z,20.20
2023-03-29T19:47:18.638Z,20.60
2023-03-29T19:48:54.978Z,20.00
2023-03-29T19:50:26.877Z,17.00
2023-03-29T19:51:59.276Z,11.00
2023-03-29T19:53:31.926Z,17.60
2023-03-29T19:55:04.289Z,17.60
2023-03-29T19:56:36.327Z,20.20
2023-03-29T19:58:09.087Z,20.00
2023-03-29T19:59:43.169Z,14.40
2023-03-29T20:01:15.805Z,17.00
2023-03-29T20:02:47.869Z,19.80
2023-03-29T20:04:21.021Z,18.20
2023-03-29T20:05:52.913Z,19.60
2023-03-29T20:07:24.880Z,16.60
2023-03-29T20:08:57.795Z,16.00
2023-03-29T20:10:29.711Z,22.00
2023-03-29T20:12:01.574Z,28.20
2023-03-29T20:13:38.895Z,30.00
2023-03-29T20:15:11.334Z,49.25
2023-03-29T20:16:44.277Z,58.75
2023-03-29T20:18:16.282Z,61.00
2023-03-29T20:19:48.234Z,58.40
2023-03-29T20:21:20.235Z,72.50
2023-03-29T20:22:54.184Z,78.50
2023-03-29T20:24:26.483Z,78.00
2023-03-29T20:25:58.521Z,80.25
2023-03-29T20:27:31.134Z,77.75
2023-03-29T20:29:03.338Z,84.25
2023-03-29T20:30:36.422Z,83.25
2023-03-29T20:32:09.250Z,89.25
2023-03-29T20:33:44.580Z,81.50
2023-03-29T20:35:16.659Z,85.00
2023-03-29T20:36:48.715Z,82.50
2023-03-29T20:38:21.650Z,86.75
2023-03-29T20:39:53.639Z,85.25
2023-03-29T20:41:26.026Z,87.50
2023-03-29T20:42:58.001Z,84.50
2023-03-29T20:44:32.404Z,88.00
2023-03-29T20:46:05.812Z,83.25
2023-03-29T20:47:42.581Z,81.00
2023-03-29T20:49:14.542Z,88.00
2023-03-29T20:50:49.524Z,91.75
2023-03-29T20:52:22.079Z,98.25
2023-03-29T20:53:54.293Z,114.50
2023-03-29T20:55:26.153Z,105.50
2023-03-29T20:56:58.092Z,97.25
2023-03-29T20:58:30.819Z,102.25
2023-03-29T21:00:12.018Z,101.00
2023-03-29T21:01:44.052Z,103.25
2023-03-29T21:03:16.106Z,92.00
2023-03-29T21:04:52.052Z,94.00
2023-03-29T21:06:26.568Z,96.50
2023-03-29T21:07:58.443Z,96.75
2023-03-29T21:09:31.213Z,95.25
2023-03-29T21:11:03.346Z,95.50
2023-03-29T21:12:35.587Z,88.75
2023-03-29T21:14:07.474Z,88.25
2023-03-29T21:15:40.745Z,86.75
2023-03-29T21:17:12.933Z,79.00
2023-03-29T21:18:44.769Z,86.50
2023-03-29T21:20:16.701Z,85.00
2023-03-29T21:21:52.267Z,78.50
2023-03-29T21:23:24.248Z,75.00
2023-03-29T21:24:56.033Z,77.00
2023-03-29T21:26:28.145Z,73.00
2023-03-29T21:28:00.003Z,75.75
2023-03-29T21:29:32.007Z,70.80
2023-03-29T21:31:06.061Z,73.00
2023-03-29T21:32:38.265Z,72.60
2023-03-29T21:34:10.160Z,67.00
2023-03-29T21:35:42.177Z,65.60
2023-03-29T21:37:15.251Z,66.80
2023-03-29T21:38:47.276Z,61.50
2023-03-29T21:40:19.171Z,62.00
2023-03-29T21:41:51.171Z,57.75
2023-03-29T21:43:23.061Z,58.00
2023-03-29T21:44:54.971Z,59.25
2023-03-29T21:46:26.958Z,57.50
2023-03-29T21:47:58.946Z,55.00
2023-03-29T21:49:31.844Z,53.00
2023-03-29T21:51:04.145Z,52.25
2023-03-29T21:52:37.861Z,48.50
2023-03-29T21:54:11.021Z,52.50
2023-03-29T21:55:42.943Z,45.50
2023-03-29T21:57:14.845Z,45.25
2023-03-29T21:58:46.700Z,48.75
2023-03-29T22:00:18.897Z,41.00
2023-03-29T22:01:51.095Z,40.75
2023-03-29T22:03:23.056Z,42.00
2023-03-29T22:04:54.874Z,41.00
2023-03-29T22:06:26.848Z,36.75
2023-03-29T22:08:00.484Z,46.50
2023-03-29T22:09:33.399Z,50.25
2023-03-29T22:11:08.260Z,41.25
2023-03-29T22:12:41.492Z,45.75
2023-03-29T22:14:14.119Z,38.75
2023-03-29T22:15:47.523Z,34.50
2023-03-29T22:17:19.455Z,35.50
2023-03-29T22:18:52.584Z,33.50
2023-03-29T22:20:24.505Z,35.00
2023-03-29T22:22:01.539Z,34.50
2023-03-29T22:23:33.845Z,30.40
2023-03-29T22:25:06.724Z,34.00
2023-03-29T22:26:38.722Z,36.75
2023-03-29T22:28:10.720Z,48.25
2023-03-29T22:29:42.652Z,51.75
2023-03-29T22:31:16.918Z,50.25
2023-03-29T22:32:48.831Z,52.25
2023-03-29T22:34:20.834Z,53.75
